Time;durP1;ratioP1;P1;durP2;ratioP2;P2;SDS_P1;SDS_P2;PMS_P1;PMS_P2;Temp;Humidity;BMP_temperature;BMP_pressure;BME280_temperature;BME280_humidity;BME280_pressure;Samples;Min_cycle;Max_cycle;Signal;HPM_P1;HPM_P2
2022/09/12 00:01:37;;;;;;;3.13;1.20;;;;;;;;;;5072986;28;20659;-80
2022/09/12 00:04:05;;;;;;;1.77;1.20;;;;;;;;;;5072911;28;20238;-80
2022/09/12 00:06:34;;;;;;;2.53;1.40;;;;;;;;;;5073432;28;20238;-81
2022/09/12 00:09:04;;;;;;;1.83;1.20;;;;;;;;;;5072567;28;20202;-80
2022/09/12 00:11:31;;;;;;;3.07;1.10;;;;;;;;;;5070983;28;20223;-80
2022/09/12 00:14:00;;;;;;;1.97;1.20;;;;;;;;;;5053093;28;20255;-80
2022/09/12 00:16:28;;;;;;;3.70;1.30;;;;;;;;;;5052563;28;20282;-80
2022/09/12 00:18:55;;;;;;;2.63;1.10;;;;;;;;;;5052796;28;20290;-80
2022/09/12 00:21:22;;;;;;;3.07;1.10;;;;;;;;;;5052500;28;20199;-80
2022/09/12 00:23:50;;;;;;;1.50;1.07;;;;;;;;;;5052779;28;20235;-80
2022/09/12 00:26:19;;;;;;;2.63;1.10;;;;;;;;;;5052023;28;20202;-80
2022/09/12 00:28:46;;;;;;;2.53;1.40;;;;;;;;;;5052769;28;20290;-80
2022/09/12 00:31:14;;;;;;;3.57;1.20;;;;;;;;;;5064571;28;20234;-80
2022/09/12 00:33:42;;;;;;;3.00;1.20;;;;;;;;;;5053084;28;20231;-80
2022/09/12 00:36:15;;;;;;;2.87;1.60;;;;;;;;;;5052924;28;20282;-80
2022/09/12 00:38:42;;;;;;;3.37;1.30;;;;;;;;;;5052397;28;20204;-80
2022/09/12 00:41:13;;;;;;;3.37;1.40;;;;;;;;;;5054741;28;20290;-80
2022/09/12 00:43:43;;;;;;;2.20;1.17;;;;;;;;;;5071512;28;20653;-80
2022/09/12 00:46:14;;;;;;;4.83;1.33;;;;;;;;;;5069408;28;20290;-80
2022/09/12 00:48:43;;;;;;;5.30;1.40;;;;;;;;;;5052737;28;20231;-80
2022/09/12 00:51:11;;;;;;;2.20;1.27;;;;;;;;;;5051040;28;20690;-80
2022/09/12 00:53:39;;;;;;;2.17;1.40;;;;;;;;;;5051973;28;20710;-80
2022/09/12 00:56:07;;;;;;;3.57;1.27;;;;;;;;;;5051657;28;20262;-80
2022/09/12 00:58:38;;;;;;;3.93;1.50;;;;;;;;;;5052202;28;20766;-80
2022/09/12 01:01:06;;;;;;;2.73;1.30;;;;;;;;;;5052024;28;20246;-80
2022/09/12 01:03:34;;;;;;;3.33;1.40;;;;;;;;;;5052374;28;20227;-80
2022/09/12 01:06:04;;;;;;;4.30;1.57;;;;;;;;;;5059355;28;20222;-80
2022/09/12 01:08:33;;;;;;;2.97;1.57;;;;;;;;;;5072350;28;20253;-80
2022/09/12 01:11:00;;;;;;;3.17;1.27;;;;;;;;;;5071051;28;20733;-80
2022/09/12 01:13:28;;;;;;;3.27;1.60;;;;;;;;;;5052404;28;20203;-81
2022/09/12 01:15:55;;;;;;;2.90;1.50;;;;;;;;;;5053488;28;20258;-80
2022/09/12 01:18:28;;;;;;;2.80;1.30;;;;;;;;;;5052767;28;20283;-80
2022/09/12 01:21:00;;;;;;;3.33;1.33;;;;;;;;;;5052802;28;20231;-80
2022/09/12 01:23:42;;;;;;;3.80;1.50;;;;;;;;;;5075694;28;20207;-80
2022/09/12 01:26:16;;;;;;;1.90;1.50;;;;;;;;;;5075736;28;20184;-80
2022/09/12 01:28:56;;;;;;;2.33;1.43;;;;;;;;;;5070828;28;20200;-80
2022/09/12 01:31:27;;;;;;;2.87;1.60;;;;;;;;;;5052473;28;20282;-80
2022/09/12 01:33:59;;;;;;;3.23;1.77;;;;;;;;;;5065503;28;20231;-80
2022/09/12 01:36:34;;;;;;;4.03;1.70;;;;;;;;;;5070847;28;20282;-80
2022/09/12 01:39:03;;;;;;;2.93;1.43;;;;;;;;;;5074982;28;20720;-80
2022/09/12 01:41:32;;;;;;;4.03;1.57;;;;;;;;;;5075776;28;20203;-80
2022/09/12 01:44:02;;;;;;;5.80;1.67;;;;;;;;;;5075562;28;20263;-80
2022/09/12 01:46:33;;;;;;;2.70;1.60;;;;;;;;;;5069538;28;20278;-80
2022/09/12 01:49:03;;;;;;;2.13;1.50;;;;;;;;;;5055811;28;20204;-80
2022/09/12 01:51:34;;;;;;;2.83;1.70;;;;;;;;;;5062434;28;20572;-80
2022/09/12 01:54:04;;;;;;;2.77;1.63;;;;;;;;;;5074349;28;20265;-80
2022/09/12 01:56:33;;;;;;;2.27;1.60;;;;;;;;;;5075242;28;20235;-80
2022/09/12 01:59:04;;;;;;;2.50;1.60;;;;;;;;;;5075271;28;20254;-80
2022/09/12 02:01:34;;;;;;;3.10;1.50;;;;;;;;;;5074260;28;20199;-80
2022/09/12 02:04:07;;;;;;;3.17;1.60;;;;;;;;;;5073770;28;20199;-80
2022/09/12 02:06:38;;;;;;;4.03;1.70;;;;;;;;;;5074439;28;20777;-80
2022/09/12 02:09:07;;;;;;;3.07;1.70;;;;;;;;;;5074633;28;20286;-80
2022/09/12 02:11:36;;;;;;;3.37;1.50;;;;;;;;;;5059821;28;20714;-82
2022/09/12 02:14:05;;;;;;;1.77;1.50;;;;;;;;;;5057103;28;20286;-79
2022/09/12 02:16:36;;;;;;;3.53;1.93;;;;;;;;;;5068585;28;20255;-81
2022/09/12 02:19:06;;;;;;;5.70;1.70;;;;;;;;;;5060599;28;20760;-79
2022/09/12 02:21:35;;;;;;;4.37;1.73;;;;;;;;;;5074023;28;20226;-82
2022/09/12 02:24:03;;;;;;;3.87;1.67;;;;;;;;;;5074784;28;20245;-81
2022/09/12 02:26:34;;;;;;;4.20;1.77;;;;;;;;;;5073829;28;20195;-81
2022/09/12 02:29:01;;;;;;;2.90;1.60;;;;;;;;;;5074417;28;20217;-81
2022/09/12 02:31:30;;;;;;;4.37;1.97;;;;;;;;;;5069067;28;20226;-81
2022/09/12 02:34:03;;;;;;;4.90;1.73;;;;;;;;;;5073347;28;20237;-81
2022/09/12 02:36:35;;;;;;;3.07;1.63;;;;;;;;;;5073055;28;20745;-81
2022/09/12 02:39:02;;;;;;;2.77;1.70;;;;;;;;;;5075066;28;20298;-81
2022/09/12 02:41:29;;;;;;;2.33;1.70;;;;;;;;;;5074575;28;20230;-81
2022/09/12 02:43:57;;;;;;;3.77;1.80;;;;;;;;;;5072887;28;20322;-81
2022/09/12 02:46:27;;;;;;;3.10;1.57;;;;;;;;;;5069362;28;20552;-81
2022/09/12 02:48:55;;;;;;;2.00;1.60;;;;;;;;;;5074703;28;20227;-81
2022/09/12 02:51:24;;;;;;;2.40;1.60;;;;;;;;;;5065681;28;20235;-81
2022/09/12 02:53:51;;;;;;;2.40;1.80;;;;;;;;;;5054340;28;20239;-81
2022/09/12 02:56:22;;;;;;;3.50;1.63;;;;;;;;;;5054211;28;20742;-81
2022/09/12 02:58:49;;;;;;;2.07;1.77;;;;;;;;;;5054170;28;20216;-81
2022/09/12 03:01:23;;;;;;;4.47;1.90;;;;;;;;;;5053962;28;20235;-82
2022/09/12 03:03:57;;;;;;;3.73;1.67;;;;;;;;;;5054243;28;20235;-81
2022/09/12 03:06:30;;;;;;;4.93;1.50;;;;;;;;;;5072507;28;20230;-81
2022/09/12 03:09:01;;;;;;;3.43;1.90;;;;;;;;;;5074168;28;20231;-81
2022/09/12 03:11:34;;;;;;;4.33;1.70;;;;;;;;;;5062033;28;20200;-81
2022/09/12 03:14:07;;;;;;;5.23;1.90;;;;;;;;;;5060846;28;20199;-81
2022/09/12 03:16:39;;;;;;;3.17;1.60;;;;;;;;;;5074104;28;20318;-81
2022/09/12 03:19:09;;;;;;;2.43;1.70;;;;;;;;;;5073822;28;20694;-81
2022/09/12 03:21:44;;;;;;;2.40;2.17;;;;;;;;;;5073859;28;20246;-81
2022/09/12 03:24:14;;;;;;;3.50;2.10;;;;;;;;;;5065873;28;20196;-80
2022/09/12 03:26:43;;;;;;;4.10;1.87;;;;;;;;;;5063651;28;20223;-81
2022/09/12 03:29:11;;;;;;;2.93;1.80;;;;;;;;;;5071631;28;20202;-81
2022/09/12 03:31:48;;;;;;;3.10;1.80;;;;;;;;;;5053719;28;20226;-82
2022/09/12 03:34:15;;;;;;;4.93;1.90;;;;;;;;;;5053269;28;20231;-82
2022/09/12 03:36:43;;;;;;;5.03;1.70;;;;;;;;;;5053706;28;20259;-81
2022/09/12 03:39:11;;;;;;;3.63;1.90;;;;;;;;;;5053811;28;20282;-81
2022/09/12 03:41:38;;;;;;;2.03;1.83;;;;;;;;;;5053085;28;20643;-81
2022/09/12 03:44:05;;;;;;;5.87;1.97;;;;;;;;;;5052801;28;20251;-81
2022/09/12 03:46:32;;;;;;;2.23;1.97;;;;;;;;;;5053675;28;20246;-81
2022/09/12 03:48:59;;;;;;;3.63;2.20;;;;;;;;;;5053180;28;20737;-81
2022/09/12 03:51:27;;;;;;;4.37;2.13;;;;;;;;;;5064488;28;20234;-81
2022/09/12 03:53:56;;;;;;;3.77;1.90;;;;;;;;;;5070631;28;20268;-81
2022/09/12 03:56:24;;;;;;;3.13;1.87;;;;;;;;;;5071554;28;20318;-82
2022/09/12 03:58:51;;;;;;;5.23;1.87;;;;;;;;;;5072991;28;20564;-81
2022/09/12 04:01:19;;;;;;;3.80;2.10;;;;;;;;;;5073352;28;20234;-80
2022/09/12 04:03:47;;;;;;;2.10;1.70;;;;;;;;;;5072190;28;20242;-81
2022/09/12 04:06:16;;;;;;;4.00;1.97;;;;;;;;;;5073153;28;20614;-82
2022/09/12 04:08:43;;;;;;;2.50;1.90;;;;;;;;;;5073061;28;20282;-81
2022/09/12 04:11:13;;;;;;;3.43;1.83;;;;;;;;;;5072913;28;20230;-81
2022/09/12 04:13:41;;;;;;;2.90;2.03;;;;;;;;;;5073021;28;20238;-81
2022/09/12 04:16:08;;;;;;;4.27;1.77;;;;;;;;;;5072724;28;20722;-81
2022/09/12 04:18:35;;;;;;;3.80;2.10;;;;;;;;;;5072891;28;20336;-81
2022/09/12 04:21:04;;;;;;;2.47;1.90;;;;;;;;;;5072644;28;20683;-81
2022/09/12 04:23:32;;;;;;;3.10;1.60;;;;;;;;;;5072679;28;20230;-82
2022/09/12 04:26:00;;;;;;;4.23;1.90;;;;;;;;;;5067821;28;20223;-82
2022/09/12 04:28:28;;;;;;;2.43;1.90;;;;;;;;;;5072318;28;20235;-81
2022/09/12 04:30:56;;;;;;;2.23;1.73;;;;;;;;;;5071081;28;20282;-82
2022/09/12 04:33:25;;;;;;;2.93;1.60;;;;;;;;;;5052288;28;20203;-82
2022/09/12 04:35:52;;;;;;;4.07;2.00;;;;;;;;;;5052680;28;20354;-81
2022/09/12 04:38:19;;;;;;;3.17;1.90;;;;;;;;;;5059241;28;20230;-81
2022/09/12 04:40:46;;;;;;;2.97;1.90;;;;;;;;;;5072339;28;20289;-82
2022/09/12 04:43:14;;;;;;;4.50;1.87;;;;;;;;;;5071707;28;20282;-81
2022/09/12 04:45:42;;;;;;;3.67;1.73;;;;;;;;;;5052809;28;20195;-81
2022/09/12 04:48:09;;;;;;;2.63;1.80;;;;;;;;;;5052006;28;20290;-83
2022/09/12 04:50:37;;;;;;;3.27;2.20;;;;;;;;;;5061620;28;20227;-83
2022/09/12 04:53:04;;;;;;;3.43;1.60;;;;;;;;;;5055890;28;20277;-84
2022/09/12 04:55:31;;;;;;;2.87;1.77;;;;;;;;;;5072543;28;20226;-84
2022/09/12 04:57:58;;;;;;;3.30;1.80;;;;;;;;;;5063027;28;20261;-83
2022/09/12 05:00:25;;;;;;;3.70;1.80;;;;;;;;;;5064616;28;20647;-83
2022/09/12 05:02:54;;;;;;;2.50;2.30;;;;;;;;;;5071417;28;20237;-83
2022/09/12 05:05:21;;;;;;;3.77;2.90;;;;;;;;;;5062695;28;20203;-84
2022/09/12 05:07:48;;;;;;;3.83;3.53;;;;;;;;;;5068207;28;20242;-84
2022/09/12 05:10:17;;;;;;;2.07;1.70;;;;;;;;;;5064156;28;20231;-84
2022/09/12 05:12:44;;;;;;;1.90;1.70;;;;;;;;;;5066665;28;20283;-84
2022/09/12 05:15:11;;;;;;;3.63;1.50;;;;;;;;;;5060687;28;20238;-84
2022/09/12 05:17:38;;;;;;;4.97;1.63;;;;;;;;;;5072897;28;20279;-84
2022/09/12 05:20:11;;;;;;;3.20;1.70;;;;;;;;;;5076311;28;20230;-85
2022/09/12 05:22:39;;;;;;;3.40;1.50;;;;;;;;;;5076479;28;20207;-83
2022/09/12 05:25:06;;;;;;;2.10;1.70;;;;;;;;;;5082934;28;20180;-82
2022/09/12 05:27:34;;;;;;;2.23;1.80;;;;;;;;;;5092049;28;20216;-83
2022/09/12 05:30:01;;;;;;;1.70;1.53;;;;;;;;;;5087251;28;20183;-83
2022/09/12 05:32:32;;;;;;;5.97;1.90;;;;;;;;;;5087273;28;20195;-84
2022/09/12 05:35:00;;;;;;;3.70;1.57;;;;;;;;;;5066764;28;20199;-83
2022/09/12 05:37:29;;;;;;;2.70;1.90;;;;;;;;;;5062756;28;20786;-84
2022/09/12 05:39:58;;;;;;;4.50;1.60;;;;;;;;;;5063662;28;20211;-84
2022/09/12 05:42:25;;;;;;;1.97;1.70;;;;;;;;;;5055627;28;20230;-83
2022/09/12 05:44:53;;;;;;;4.40;1.80;;;;;;;;;;5070673;28;20313;-83
2022/09/12 05:47:20;;;;;;;4.63;1.97;;;;;;;;;;5072688;28;20235;-80
2022/09/12 05:49:51;;;;;;;3.80;2.00;;;;;;;;;;5072949;28;20306;-80
2022/09/12 05:52:19;;;;;;;4.17;1.90;;;;;;;;;;5071977;28;20679;-80
2022/09/12 05:54:48;;;;;;;2.97;1.90;;;;;;;;;;5073116;28;20211;-80
2022/09/12 05:57:15;;;;;;;2.37;2.00;;;;;;;;;;5072687;28;20269;-80
2022/09/12 05:59:43;;;;;;;2.80;1.60;;;;;;;;;;5069356;28;20294;-80
2022/09/12 06:02:11;;;;;;;2.60;2.07;;;;;;;;;;5068223;28;20195;-80
2022/09/12 06:04:40;;;;;;;2.67;1.90;;;;;;;;;;5071725;28;20279;-80
2022/09/12 06:07:08;;;;;;;3.20;1.60;;;;;;;;;;5055821;28;20210;-80
2022/09/12 06:09:35;;;;;;;3.67;1.70;;;;;;;;;;5062894;28;20297;-80
2022/09/12 06:12:04;;;;;;;2.10;1.73;;;;;;;;;;5060943;28;20744;-80
2022/09/12 06:14:31;;;;;;;3.43;1.97;;;;;;;;;;5062281;28;20691;-80
2022/09/12 06:16:58;;;;;;;1.83;1.73;;;;;;;;;;5066487;28;20211;-79
2022/09/12 06:19:26;;;;;;;3.67;1.70;;;;;;;;;;5070144;28;20291;-80
2022/09/12 06:21:54;;;;;;;4.17;1.90;;;;;;;;;;5073222;28;20233;-80
2022/09/12 06:24:22;;;;;;;3.27;1.90;;;;;;;;;;5072593;28;20196;-79
2022/09/12 06:26:51;;;;;;;2.43;1.60;;;;;;;;;;5072222;28;20684;-80
2022/09/12 06:29:20;;;;;;;2.10;1.73;;;;;;;;;;5061085;28;20214;-80
2022/09/12 06:31:48;;;;;;;2.53;1.50;;;;;;;;;;5073742;28;20252;-79
2022/09/12 06:34:15;;;;;;;3.37;1.60;;;;;;;;;;5070278;28;20663;-80
2022/09/12 06:36:43;;;;;;;3.10;1.90;;;;;;;;;;5070363;28;20766;-79
2022/09/12 06:39:11;;;;;;;1.93;1.53;;;;;;;;;;5071849;28;20245;-80
2022/09/12 06:41:39;;;;;;;3.27;1.83;;;;;;;;;;5071585;28;20235;-80
2022/09/12 06:44:06;;;;;;;2.43;1.50;;;;;;;;;;5062134;28;20315;-79
2022/09/12 06:46:35;;;;;;;3.33;1.40;;;;;;;;;;5071571;28;20214;-80
2022/09/12 06:49:02;;;;;;;1.60;1.27;;;;;;;;;;5071616;28;20199;-80
2022/09/12 06:51:30;;;;;;;1.98;1.20;;;;;;;;;;5068380;28;20703;-79
2022/09/12 06:53:57;;;;;;;1.80;1.35;;;;;;;;;;5066484;28;20565;-80
2022/09/12 06:56:26;;;;;;;3.70;1.10;;;;;;;;;;5060895;28;20224;-80
2022/09/12 06:58:53;;;;;;;3.13;1.30;;;;;;;;;;5063932;28;20229;-80
2022/09/12 07:01:21;;;;;;;2.00;1.10;;;;;;;;;;5071893;28;20223;-78
2022/09/12 07:03:51;;;;;;;1.75;1.08;;;;;;;;;;5071108;28;20195;-78
2022/09/12 07:06:19;;;;;;;1.20;0.90;;;;;;;;;;5072913;28;20253;-81
2022/09/12 07:08:46;;;;;;;1.45;1.10;;;;;;;;;;5069324;28;20922;-78
2022/09/12 07:11:15;;;;;;;2.85;1.10;;;;;;;;;;5070678;28;20203;-78
2022/09/12 07:13:43;;;;;;;2.95;1.10;;;;;;;;;;5070080;28;20282;-79
2022/09/12 07:16:11;;;;;;;4.38;1.20;;;;;;;;;;5056366;28;20257;-80
2022/09/12 07:18:39;;;;;;;2.55;1.10;;;;;;;;;;5058082;28;20321;-79
2022/09/12 07:21:08;;;;;;;5.40;1.38;;;;;;;;;;5068072;28;20242;-80
2022/09/12 07:23:35;;;;;;;2.97;1.25;;;;;;;;;;5070304;28;20276;-79
2022/09/12 07:26:03;;;;;;;3.72;1.20;;;;;;;;;;5064861;28;20291;-80
2022/09/12 07:28:31;;;;;;;4.35;1.23;;;;;;;;;;5069045;28;20234;-78
2022/09/12 07:30:58;;;;;;;2.28;1.10;;;;;;;;;;5068937;28;20283;-77
2022/09/12 07:33:28;;;;;;;2.53;1.20;;;;;;;;;;5069539;28;20195;-78
2022/09/12 07:35:55;;;;;;;2.35;1.20;;;;;;;;;;5064081;28;20668;-78
2022/09/12 07:38:24;;;;;;;4.28;1.13;;;;;;;;;;5064948;28;20692;-78
2022/09/12 07:40:51;;;;;;;2.58;1.20;;;;;;;;;;5070589;28;20233;-78
2022/09/12 07:43:19;;;;;;;2.47;1.02;;;;;;;;;;5069455;28;20256;-78
2022/09/12 07:45:46;;;;;;;2.42;1.20;;;;;;;;;;5064000;28;20224;-78
2022/09/12 07:48:13;;;;;;;1.75;0.90;;;;;;;;;;5067218;28;20282;-79
2022/09/12 07:50:41;;;;;;;4.75;1.17;;;;;;;;;;5067608;28;20675;-79
2022/09/12 07:53:08;;;;;;;2.38;1.17;;;;;;;;;;5059882;28;20203;-79
2022/09/12 07:55:37;;;;;;;3.17;1.17;;;;;;;;;;5068089;28;20199;-79
2022/09/12 07:58:04;;;;;;;2.85;1.10;;;;;;;;;;5066325;28;20305;-79
2022/09/12 08:00:34;;;;;;;2.17;1.30;;;;;;;;;;5068509;28;20286;-78
2022/09/12 08:03:03;;;;;;;2.47;1.20;;;;;;;;;;5066848;28;20195;-79
2022/09/12 08:05:30;;;;;;;3.13;1.10;;;;;;;;;;5067270;28;20199;-79
2022/09/12 08:07:57;;;;;;;4.07;1.20;;;;;;;;;;5071365;28;20248;-79
2022/09/12 08:10:24;;;;;;;3.72;1.20;;;;;;;;;;5066574;28;20263;-79
2022/09/12 08:12:53;;;;;;;2.20;1.20;;;;;;;;;;5063991;28;20222;-79
2022/09/12 08:15:20;;;;;;;1.55;1.08;;;;;;;;;;5065924;28;20282;-79
2022/09/12 08:17:47;;;;;;;2.58;1.40;;;;;;;;;;5069576;28;20309;-73
2022/09/12 08:20:15;;;;;;;3.13;1.10;;;;;;;;;;5063237;28;20579;-79
2022/09/12 08:22:42;;;;;;;2.90;1.17;;;;;;;;;;5065231;28;20234;-78
2022/09/12 08:25:12;;;;;;;3.45;1.20;;;;;;;;;;5061702;28;20290;-78
2022/09/12 08:27:39;;;;;;;1.90;1.27;;;;;;;;;;5070047;28;20186;-79
2022/09/12 08:30:08;;;;;;;3.97;1.08;;;;;;;;;;5068242;28;20670;-74
2022/09/12 08:32:35;;;;;;;2.95;1.00;;;;;;;;;;5056259;28;21003;-73
2022/09/12 08:35:03;;;;;;;2.83;1.15;;;;;;;;;;5068221;28;20222;-74
2022/09/12 08:37:30;;;;;;;5.10;1.42;;;;;;;;;;5069137;28;20269;-73
2022/09/12 08:39:58;;;;;;;4.10;1.00;;;;;;;;;;5061094;28;20293;-73
2022/09/12 08:42:29;;;;;;;2.58;1.17;;;;;;;;;;5056856;28;20252;-74
2022/09/12 08:45:04;;;;;;;5.97;1.10;;;;;;;;;;5058951;28;20309;-74
2022/09/12 08:47:35;;;;;;;3.05;1.30;;;;;;;;;;5065080;28;20186;-74
2022/09/12 08:50:10;;;;;;;7.50;1.35;;;;;;;;;;5063734;28;20202;-78
2022/09/12 08:52:40;;;;;;;4.45;1.10;;;;;;;;;;5068783;28;20235;-78
2022/09/12 08:55:14;;;;;;;3.13;1.20;;;;;;;;;;5055714;28;20261;-74
2022/09/12 08:57:41;;;;;;;2.97;0.90;;;;;;;;;;5065970;28;20253;-73
2022/09/12 09:00:14;;;;;;;3.70;1.23;;;;;;;;;;5064310;28;20194;-73
2022/09/12 09:02:52;;;;;;;3.33;1.20;;;;;;;;;;5066957;28;20250;-73
2022/09/12 09:05:22;;;;;;;4.43;1.13;;;;;;;;;;5064294;28;20199;-73
2022/09/12 09:08:01;;;;;;;5.65;1.33;;;;;;;;;;5060631;28;20251;-74
2022/09/12 09:10:32;;;;;;;5.97;1.20;;;;;;;;;;5053924;28;20278;-74
2022/09/12 09:13:03;;;;;;;5.13;1.17;;;;;;;;;;5060232;28;20622;-73
2022/09/12 09:15:33;;;;;;;5.70;1.15;;;;;;;;;;5065136;28;20221;-73
2022/09/12 09:18:05;;;;;;;2.78;1.10;;;;;;;;;;5057649;28;20631;-73
2022/09/12 09:20:35;;;;;;;5.20;1.10;;;;;;;;;;5061353;28;20199;-73
2022/09/12 09:23:04;;;;;;;2.67;1.00;;;;;;;;;;5067176;28;20273;-73
2022/09/12 09:25:38;;;;;;;5.47;1.10;;;;;;;;;;5067874;28;20752;-74
2022/09/12 09:28:06;;;;;;;5.63;1.23;;;;;;;;;;5066703;28;20203;-73
2022/09/12 09:30:34;;;;;;;3.72;1.10;;;;;;;;;;5065131;28;20232;-74
2022/09/12 09:33:04;;;;;;;3.22;1.02;;;;;;;;;;5068135;28;20264;-75
2022/09/12 09:35:39;;;;;;;4.97;1.40;;;;;;;;;;5059049;28;20214;-74
2022/09/12 09:38:14;;;;;;;3.25;1.17;;;;;;;;;;5053832;28;20755;-75
2022/09/12 09:40:46;;;;;;;5.45;1.20;;;;;;;;;;5053177;28;20254;-74
2022/09/12 09:43:18;;;;;;;2.30;1.00;;;;;;;;;;5061219;28;20199;-74
2022/09/12 09:45:46;;;;;;;1.83;0.90;;;;;;;;;;5062873;28;20221;-73
2022/09/12 09:48:17;;;;;;;1.52;0.93;;;;;;;;;;5062038;28;20651;-74
2022/09/12 09:50:44;;;;;;;2.30;0.80;;;;;;;;;;5066746;28;20195;-74
2022/09/12 09:53:18;;;;;;;2.08;0.90;;;;;;;;;;5052399;28;20230;-74
2022/09/12 09:55:46;;;;;;;3.30;1.10;;;;;;;;;;5061060;28;20214;-74
2022/09/12 09:58:28;;;;;;;1.02;0.80;;;;;;;;;;5073515;28;20268;-74
2022/09/12 10:00:59;;;;;;;3.58;0.85;;;;;;;;;;5073558;28;20674;-74
2022/09/12 10:03:30;;;;;;;2.72;1.10;;;;;;;;;;5072176;28;20199;-74
2022/09/12 10:05:59;;;;;;;1.73;0.90;;;;;;;;;;5070535;28;20740;-75
2022/09/12 10:08:27;;;;;;;2.70;0.88;;;;;;;;;;5064074;28;20200;-75
2022/09/12 10:10:56;;;;;;;2.75;0.90;;;;;;;;;;5060830;28;20207;-75
2022/09/12 10:13:25;;;;;;;1.05;0.80;;;;;;;;;;5062046;28;20196;-74
2022/09/12 10:15:59;;;;;;;2.05;0.73;;;;;;;;;;5063298;28;20224;-74
2022/09/12 10:18:38;;;;;;;1.27;0.80;;;;;;;;;;5064003;28;20325;-74
2022/09/12 10:21:16;;;;;;;2.08;0.80;;;;;;;;;;5061530;28;20206;-74
2022/09/12 10:23:43;;;;;;;1.20;0.80;;;;;;;;;;5061931;28;20234;-74
2022/09/12 10:26:12;;;;;;;1.13;0.90;;;;;;;;;;5062193;28;20282;-75
2022/09/12 10:28:40;;;;;;;2.00;1.00;;;;;;;;;;5061588;28;20242;-74
2022/09/12 10:31:09;;;;;;;1.73;0.90;;;;;;;;;;5060248;28;20243;-74
2022/09/12 10:33:42;;;;;;;1.90;0.90;;;;;;;;;;5062671;28;20326;-74
2022/09/12 10:36:09;;;;;;;2.28;0.80;;;;;;;;;;5061160;28;20233;-75
2022/09/12 10:38:36;;;;;;;2.33;1.05;;;;;;;;;;5062322;28;20794;-74
2022/09/12 10:41:05;;;;;;;1.55;0.90;;;;;;;;;;5062835;28;20231;-75
2022/09/12 10:43:36;;;;;;;1.00;0.70;;;;;;;;;;5059756;28;20562;-74
2022/09/12 10:46:18;;;;;;;1.75;0.90;;;;;;;;;;5062008;28;20192;-75
2022/09/12 10:48:47;;;;;;;1.77;0.90;;;;;;;;;;5061977;28;20274;-74
2022/09/12 10:51:26;;;;;;;2.13;0.90;;;;;;;;;;5059369;28;20214;-75
2022/09/12 10:53:55;;;;;;;1.90;0.80;;;;;;;;;;5066217;28;20226;-74
2022/09/12 10:56:24;;;;;;;2.00;0.93;;;;;;;;;;5066387;28;20195;-74
2022/09/12 10:58:57;;;;;;;3.38;1.00;;;;;;;;;;5062058;28;20254;-74
2022/09/12 11:01:31;;;;;;;1.35;0.80;;;;;;;;;;5066508;28;20290;-75
2022/09/12 11:04:16;;;;;;;1.00;0.90;;;;;;;;;;5072026;28;20238;-74
2022/09/12 11:06:47;;;;;;;1.88;1.00;;;;;;;;;;5063038;28;20755;-76
2022/09/12 11:09:19;;;;;;;3.17;1.10;;;;;;;;;;5059849;28;20224;-74
2022/09/12 11:11:52;;;;;;;2.17;0.90;;;;;;;;;;5061611;28;20203;-74
2022/09/12 11:14:26;;;;;;;1.42;1.10;;;;;;;;;;5067732;28;20195;-74
2022/09/12 11:16:57;;;;;;;1.50;0.77;;;;;;;;;;5064684;28;20284;-76
2022/09/12 11:19:41;;;;;;;2.15;0.90;;;;;;;;;;5071974;28;20595;-75
2022/09/12 11:22:15;;;;;;;1.60;0.80;;;;;;;;;;5065558;28;20291;-75
2022/09/12 11:24:47;;;;;;;2.53;0.90;;;;;;;;;;5058046;28;20227;-75
2022/09/12 11:27:28;;;;;;;2.95;1.00;;;;;;;;;;5060940;28;20236;-74
2022/09/12 11:29:59;;;;;;;2.38;0.88;;;;;;;;;;5071150;28;20339;-75
2022/09/12 11:32:38;;;;;;;3.45;0.93;;;;;;;;;;5069139;28;20753;-75
2022/09/12 11:35:09;;;;;;;2.72;0.75;;;;;;;;;;5052829;28;20235;-74
2022/09/12 11:37:45;;;;;;;1.17;0.90;;;;;;;;;;5058522;28;20309;-75
2022/09/12 11:40:20;;;;;;;1.42;0.90;;;;;;;;;;5065240;28;20568;-75
2022/09/12 11:42:48;;;;;;;2.28;0.90;;;;;;;;;;5070629;28;20555;-75
2022/09/12 11:45:18;;;;;;;1.40;0.90;;;;;;;;;;5072421;28;20658;-75
2022/09/12 11:47:47;;;;;;;1.48;0.80;;;;;;;;;;5070696;28;20203;-75
2022/09/12 11:50:20;;;;;;;1.63;0.90;;;;;;;;;;5059598;28;20210;-74
2022/09/12 11:52:47;;;;;;;2.70;0.80;;;;;;;;;;5061206;28;20203;-76
2022/09/12 11:55:17;;;;;;;1.73;0.80;;;;;;;;;;5065810;28;20264;-77
2022/09/12 11:57:45;;;;;;;2.40;1.20;;;;;;;;;;5072613;28;20685;-76
2022/09/12 12:00:17;;;;;;;1.33;0.98;;;;;;;;;;5072298;28;20235;-76
2022/09/12 12:02:51;;;;;;;1.88;1.00;;;;;;;;;;5067521;28;20195;-76
2022/09/12 12:05:23;;;;;;;1.90;0.93;;;;;;;;;;5069030;28;20237;-76
2022/09/12 12:07:53;;;;;;;3.45;1.00;;;;;;;;;;5060801;28;20280;-76
2022/09/12 12:10:25;;;;;;;2.05;1.08;;;;;;;;;;5059217;28;20614;-75
2022/09/12 12:12:53;;;;;;;2.70;1.20;;;;;;;;;;5064632;28;20207;-76
2022/09/12 12:15:22;;;;;;;2.13;1.10;;;;;;;;;;5070887;28;20203;-76
2022/09/12 12:18:00;;;;;;;1.52;1.10;;;;;;;;;;5069279;28;20230;-75
2022/09/12 12:20:29;;;;;;;1.23;0.93;;;;;;;;;;5071226;28;20217;-75
2022/09/12 12:22:56;;;;;;;2.58;1.13;;;;;;;;;;5060106;28;20203;-76
2022/09/12 12:25:25;;;;;;;2.17;1.00;;;;;;;;;;5051548;28;20629;-76
2022/09/12 12:27:54;;;;;;;1.58;0.80;;;;;;;;;;5052361;28;20231;-76
2022/09/12 12:30:39;;;;;;;1.20;0.80;;;;;;;;;;5051421;28;20208;-77
2022/09/12 12:33:27;;;;;;;2.90;0.85;;;;;;;;;;5051818;28;20210;-76
2022/09/12 12:36:04;;;;;;;1.65;0.90;;;;;;;;;;5064188;28;20230;-76
2022/09/12 12:38:32;;;;;;;1.85;0.60;;;;;;;;;;5067676;28;20234;-76
2022/09/12 12:41:18;;;;;;;2.47;0.95;;;;;;;;;;5054895;28;20252;-76
2022/09/12 12:43:46;;;;;;;1.50;0.60;;;;;;;;;;5057866;28;20772;-75
2022/09/12 12:46:14;;;;;;;1.92;0.80;;;;;;;;;;5071445;28;20196;-76
2022/09/12 12:48:59;;;;;;;2.22;1.00;;;;;;;;;;5070319;28;20546;-75
2022/09/12 12:51:36;;;;;;;3.10;1.00;;;;;;;;;;5070506;28;20233;-76
2022/09/12 12:54:05;;;;;;;3.45;0.90;;;;;;;;;;5064011;28;20210;-75
2022/09/12 12:56:37;;;;;;;5.25;1.02;;;;;;;;;;5067020;28;20200;-75
2022/09/12 12:59:07;;;;;;;2.55;0.93;;;;;;;;;;5031427;28;20238;-77
2022/09/12 13:01:39;;;;;;;4.70;0.88;;;;;;;;;;5047182;28;20203;-77
2022/09/12 13:04:13;;;;;;;2.35;0.80;;;;;;;;;;5055201;28;20227;-77
2022/09/12 13:06:44;;;;;;;1.77;0.95;;;;;;;;;;5055619;28;20671;-78
2022/09/12 13:09:20;;;;;;;3.38;0.93;;;;;;;;;;5068751;28;20187;-77
2022/09/12 13:11:48;;;;;;;3.08;1.00;;;;;;;;;;5065006;28;20316;-76
2022/09/12 13:14:30;;;;;;;4.53;1.10;;;;;;;;;;5067268;28;20284;-80
2022/09/12 13:16:59;;;;;;;2.55;0.98;;;;;;;;;;5062321;28;20199;-80
2022/09/12 13:19:28;;;;;;;2.13;0.90;;;;;;;;;;5065192;28;20218;-79
2022/09/12 13:22:00;;;;;;;2.70;1.13;;;;;;;;;;5061000;28;20206;-81
2022/09/12 13:24:27;;;;;;;3.65;0.95;;;;;;;;;;5069528;28;20293;-80
2022/09/12 13:26:56;;;;;;;3.53;1.40;;;;;;;;;;5067361;28;20686;-79
2022/09/12 13:29:24;;;;;;;2.05;0.80;;;;;;;;;;5070693;28;20194;-82
2022/09/12 13:31:53;;;;;;;3.55;1.10;;;;;;;;;;5065502;28;20200;-84
2022/09/12 13:34:22;;;;;;;3.83;1.00;;;;;;;;;;5071323;28;20195;-84
2022/09/12 13:36:58;;;;;;;3.10;0.90;;;;;;;;;;5073858;28;20195;-83
2022/09/12 13:39:28;;;;;;;4.22;1.10;;;;;;;;;;5073993;28;20616;-83
2022/09/12 13:42:14;;;;;;;2.00;0.98;;;;;;;;;;5073767;28;20206;-84
2022/09/12 13:44:43;;;;;;;2.70;0.80;;;;;;;;;;5064465;28;20234;-84
2022/09/12 13:47:14;;;;;;;1.85;0.88;;;;;;;;;;5075141;28;20252;-83
2022/09/12 13:49:42;;;;;;;1.42;0.73;;;;;;;;;;5072201;28;20668;-84
2022/09/12 13:52:10;;;;;;;2.67;1.00;;;;;;;;;;5074177;28;20198;-84
2022/09/12 13:54:39;;;;;;;1.52;0.93;;;;;;;;;;5073455;28;20313;-83
2022/09/12 13:57:07;;;;;;;5.35;1.10;;;;;;;;;;5076136;28;20205;-83
2022/09/12 13:59:39;;;;;;;2.53;1.00;;;;;;;;;;5073256;28;20642;-83
2022/09/12 14:02:17;;;;;;;2.97;1.00;;;;;;;;;;5078167;28;20226;-84
2022/09/12 14:07:33;;;;;;;2.13;1.00;;;;;;;;;;5068363;28;20242;-84
2022/09/12 14:10:03;;;;;;;1.90;0.77;;;;;;;;;;5072208;28;20195;-84
2022/09/12 14:12:33;;;;;;;3.40;0.90;;;;;;;;;;5071731;28;20206;-79
2022/09/12 14:15:01;;;;;;;3.22;1.00;;;;;;;;;;5072468;28;20210;-82
2022/09/12 14:17:30;;;;;;;2.85;1.08;;;;;;;;;;5069454;28;20211;-78
2022/09/12 14:19:58;;;;;;;3.40;1.10;;;;;;;;;;5072092;28;20218;-83
2022/09/12 14:22:28;;;;;;;3.90;0.85;;;;;;;;;;5072049;28;20241;-79
2022/09/12 14:24:57;;;;;;;4.80;1.00;;;;;;;;;;5073080;28;20289;-84
2022/09/12 14:27:27;;;;;;;1.75;0.80;;;;;;;;;;5070907;28;20211;-78
2022/09/12 14:30:01;;;;;;;1.77;0.85;;;;;;;;;;5069097;28;20242;-83
2022/09/12 14:32:28;;;;;;;2.92;0.90;;;;;;;;;;5067441;28;20199;-83
2022/09/12 14:35:05;;;;;;;2.90;0.90;;;;;;;;;;5067600;28;20268;-78
2022/09/12 14:37:32;;;;;;;3.28;0.70;;;;;;;;;;5065673;28;20675;-78
2022/09/12 14:39:59;;;;;;;2.78;0.85;;;;;;;;;;5069679;28;20215;-85
2022/09/12 14:42:31;;;;;;;2.42;1.00;;;;;;;;;;5067670;28;20206;-85
2022/09/12 14:45:01;;;;;;;1.00;0.80;;;;;;;;;;5059255;28;20235;-84
2022/09/12 14:47:32;;;;;;;1.17;0.77;;;;;;;;;;5065176;28;20255;-84
2022/09/12 14:49:59;;;;;;;5.03;1.10;;;;;;;;;;5064762;28;20226;-80
2022/09/12 14:52:29;;;;;;;2.38;1.08;;;;;;;;;;5067088;28;20203;-79
2022/09/12 14:54:57;;;;;;;1.55;1.02;;;;;;;;;;5065543;28;20680;-79
2022/09/12 14:57:39;;;;;;;3.03;1.00;;;;;;;;;;5068001;28;20207;-84
2022/09/12 15:00:16;;;;;;;3.03;0.88;;;;;;;;;;5065187;28;20219;-79
2022/09/12 15:02:44;;;;;;;1.83;0.77;;;;;;;;;;5066095;28;20203;-80